sensor_id;sensor_type;location;lat;lon;timestamp;P1;durP1;ratioP1;P2;durP2;ratioP2
23866;SDS011;12114;53.404;-1.502;2023-11-18T00:00:29;26.83;;;13.98;;
23866;SDS011;12114;53.404;-1.502;2023-11-18T00:03:13;28.90;;;13.50;;
23866;SDS011;12114;53.404;-1.502;2023-11-18T00:05:57;30.83;;;13.68;;
23866;SDS011;12114;53.404;-1.502;2023-11-18T00:08:41;30.15;;;13.00;;
23866;SDS011;12114;53.404;-1.502;2023-11-18T00:11:26;26.95;;;13.10;;
23866;SDS011;12114;53.404;-1.502;2023-11-18T00:14:10;24.63;;;13.25;;
23866;SDS011;12114;53.404;-1.502;2023-11-18T00:16:55;31.58;;;15.48;;
23866;SDS011;12114;53.404;-1.502;2023-11-18T00:19:39;41.65;;;19.92;;
23866;SDS011;12114;53.404;-1.502;2023-11-18T00:22:23;42.65;;;21.30;;
23866;SDS011;12114;53.404;-1.502;2023-11-18T00:25:07;34.28;;;18.08;;
23866;SDS011;12114;53.404;-1.502;2023-11-18T00:27:51;21.83;;;11.27;;
23866;SDS011;12114;53.404;-1.502;2023-11-18T00:30:35;33.13;;;21.75;;
23866;SDS011;12114;53.404;-1.502;2023-11-18T00:33:19;29.88;;;15.25;;
23866;SDS011;12114;53.404;-1.502;2023-11-18T00:36:03;26.48;;;13.65;;
23866;SDS011;12114;53.404;-1.502;2023-11-18T00:38:47;26.65;;;12.57;;
23866;SDS011;12114;53.404;-1.502;2023-11-18T00:41:33;25.20;;;10.43;;
23866;SDS011;12114;53.404;-1.502;2023-11-18T00:44:16;20.67;;;9.25;;
23866;SDS011;12114;53.404;-1.502;2023-11-18T00:47:02;22.17;;;11.25;;
23866;SDS011;12114;53.404;-1.502;2023-11-18T00:49:49;27.63;;;13.15;;
23866;SDS011;12114;53.404;-1.502;2023-11-18T00:52:34;19.08;;;8.50;;
23866;SDS011;12114;53.404;-1.502;2023-11-18T00:55:18;24.27;;;13.23;;
23866;SDS011;12114;53.404;-1.502;2023-11-18T00:58:02;25.38;;;11.27;;
23866;SDS011;12114;53.404;-1.502;2023-11-18T01:00:46;23.08;;;11.00;;
23866;SDS011;12114;53.404;-1.502;2023-11-18T01:03:30;26.40;;;12.93;;
23866;SDS011;12114;53.404;-1.502;2023-11-18T01:06:14;28.38;;;13.82;;
23866;SDS011;12114;53.404;-1.502;2023-11-18T01:09:01;22.30;;;8.27;;
23866;SDS011;12114;53.404;-1.502;2023-11-18T01:11:45;19.02;;;7.43;;
23866;SDS011;12114;53.404;-1.502;2023-11-18T01:14:29;16.63;;;7.95;;
23866;SDS011;12114;53.404;-1.502;2023-11-18T01:17:13;15.75;;;7.00;;
23866;SDS011;12114;53.404;-1.502;2023-11-18T01:20:00;18.70;;;8.20;;
23866;SDS011;12114;53.404;-1.502;2023-11-18T01:22:49;20.25;;;10.02;;
23866;SDS011;12114;53.404;-1.502;2023-11-18T01:25:33;21.48;;;7.38;;
23866;SDS011;12114;53.404;-1.502;2023-11-18T01:28:18;19.88;;;6.68;;
23866;SDS011;12114;53.404;-1.502;2023-11-18T01:31:05;17.80;;;6.20;;
23866;SDS011;12114;53.404;-1.502;2023-11-18T01:33:53;19.73;;;5.97;;
23866;SDS011;12114;53.404;-1.502;2023-11-18T01:36:38;13.13;;;6.00;;
23866;SDS011;12114;53.404;-1.502;2023-11-18T01:39:22;16.48;;;6.60;;
23866;SDS011;12114;53.404;-1.502;2023-11-18T01:42:08;17.45;;;7.63;;
23866;SDS011;12114;53.404;-1.502;2023-11-18T01:44:52;12.75;;;5.80;;
23866;SDS011;12114;53.404;-1.502;2023-11-18T01:47:39;20.08;;;6.30;;
23866;SDS011;12114;53.404;-1.502;2023-11-18T01:50:24;16.02;;;5.80;;
23866;SDS011;12114;53.404;-1.502;2023-11-18T01:53:08;14.77;;;5.90;;
23866;SDS011;12114;53.404;-1.502;2023-11-18T01:55:54;10.07;;;4.63;;
23866;SDS011;12114;53.404;-1.502;2023-11-18T01:58:38;13.88;;;4.55;;
23866;SDS011;12114;53.404;-1.502;2023-11-18T02:04:11;10.88;;;4.15;;
23866;SDS011;12114;53.404;-1.502;2023-11-18T02:06:56;13.38;;;4.70;;
23866;SDS011;12114;53.404;-1.502;2023-11-18T02:09:41;11.23;;;4.88;;
23866;SDS011;12114;53.404;-1.502;2023-11-18T02:12:27;12.40;;;3.65;;
23866;SDS011;12114;53.404;-1.502;2023-11-18T02:15:18;7.72;;;4.07;;
23866;SDS011;12114;53.404;-1.502;2023-11-18T02:18:06;10.00;;;3.80;;
23866;SDS011;12114;53.404;-1.502;2023-11-18T02:20:54;10.23;;;3.83;;
23866;SDS011;12114;53.404;-1.502;2023-11-18T02:23:41;9.98;;;3.70;;
23866;SDS011;12114;53.404;-1.502;2023-11-18T02:26:27;6.93;;;3.08;;
23866;SDS011;12114;53.404;-1.502;2023-11-18T02:29:10;10.32;;;3.63;;
23866;SDS011;12114;53.404;-1.502;2023-11-18T02:31:58;8.85;;;3.03;;
23866;SDS011;12114;53.404;-1.502;2023-11-18T02:35:51;7.10;;;3.20;;
23866;SDS011;12114;53.404;-1.502;2023-11-18T02:38:31;4.88;;;3.20;;
23866;SDS011;12114;53.404;-1.502;2023-11-18T02:41:23;9.63;;;3.50;;
23866;SDS011;12114;53.404;-1.502;2023-11-18T02:44:13;8.07;;;3.53;;
23866;SDS011;12114;53.404;-1.502;2023-11-18T02:47:01;8.80;;;3.97;;
23866;SDS011;12114;53.404;-1.502;2023-11-18T02:49:46;8.77;;;3.80;;
23866;SDS011;12114;53.404;-1.502;2023-11-18T02:52:38;8.30;;;4.43;;
23866;SDS011;12114;53.404;-1.502;2023-11-18T02:55:22;5.85;;;3.97;;
23866;SDS011;12114;53.404;-1.502;2023-11-18T02:58:08;4.63;;;3.38;;
23866;SDS011;12114;53.404;-1.502;2023-11-18T03:00:52;6.28;;;3.00;;
23866;SDS011;12114;53.404;-1.502;2023-11-18T03:03:37;4.75;;;2.40;;
23866;SDS011;12114;53.404;-1.502;2023-11-18T03:06:21;3.80;;;2.03;;
23866;SDS011;12114;53.404;-1.502;2023-11-18T03:09:05;6.25;;;2.25;;
23866;SDS011;12114;53.404;-1.502;2023-11-18T03:11:51;3.65;;;1.65;;
23866;SDS011;12114;53.404;-1.502;2023-11-18T03:14:35;4.60;;;1.92;;
23866;SDS011;12114;53.404;-1.502;2023-11-18T03:17:19;3.50;;;1.45;;
23866;SDS011;12114;53.404;-1.502;2023-11-18T03:20:04;3.42;;;1.27;;
23866;SDS011;12114;53.404;-1.502;2023-11-18T03:22:55;4.82;;;1.58;;
23866;SDS011;12114;53.404;-1.502;2023-11-18T03:25:46;3.63;;;1.40;;
23866;SDS011;12114;53.404;-1.502;2023-11-18T03:28:30;5.35;;;1.30;;
23866;SDS011;12114;53.404;-1.502;2023-11-18T03:31:14;2.92;;;1.40;;
23866;SDS011;12114;53.404;-1.502;2023-11-18T03:33:59;3.05;;;1.45;;
23866;SDS011;12114;53.404;-1.502;2023-11-18T03:36:46;2.42;;;1.50;;
23866;SDS011;12114;53.404;-1.502;2023-11-18T03:39:30;3.08;;;1.55;;
23866;SDS011;12114;53.404;-1.502;2023-11-18T03:42:14;2.55;;;1.40;;
23866;SDS011;12114;53.404;-1.502;2023-11-18T03:45:01;3.45;;;1.40;;
23866;SDS011;12114;53.404;-1.502;2023-11-18T03:47:46;3.38;;;1.52;;
23866;SDS011;12114;53.404;-1.502;2023-11-18T03:50:31;2.67;;;1.37;;
23866;SDS011;12114;53.404;-1.502;2023-11-18T03:53:15;3.67;;;1.58;;
23866;SDS011;12114;53.404;-1.502;2023-11-18T03:55:59;2.65;;;1.05;;
23866;SDS011;12114;53.404;-1.502;2023-11-18T03:58:43;2.10;;;1.23;;
23866;SDS011;12114;53.404;-1.502;2023-11-18T04:01:27;2.10;;;0.80;;
23866;SDS011;12114;53.404;-1.502;2023-11-18T04:04:13;1.30;;;1.05;;
23866;SDS011;12114;53.404;-1.502;2023-11-18T04:06:58;1.85;;;1.10;;
23866;SDS011;12114;53.404;-1.502;2023-11-18T04:09:45;5.13;;;1.05;;
23866;SDS011;12114;53.404;-1.502;2023-11-18T04:12:29;1.98;;;0.85;;
23866;SDS011;12114;53.404;-1.502;2023-11-18T04:15:14;1.23;;;0.80;;
23866;SDS011;12114;53.404;-1.502;2023-11-18T04:17:59;3.80;;;0.90;;
23866;SDS011;12114;53.404;-1.502;2023-11-18T04:20:43;1.80;;;0.82;;
23866;SDS011;12114;53.404;-1.502;2023-11-18T04:23:27;1.30;;;0.95;;
23866;SDS011;12114;53.404;-1.502;2023-11-18T04:26:11;1.15;;;0.70;;
23866;SDS011;12114;53.404;-1.502;2023-11-18T04:28:56;0.82;;;0.70;;
23866;SDS011;12114;53.404;-1.502;2023-11-18T04:31:40;0.90;;;0.60;;
23866;SDS011;12114;53.404;-1.502;2023-11-18T04:34:24;1.35;;;0.70;;
23866;SDS011;12114;53.404;-1.502;2023-11-18T04:37:08;3.03;;;0.70;;
23866;SDS011;12114;53.404;-1.502;2023-11-18T04:39:53;1.83;;;0.60;;
23866;SDS011;12114;53.404;-1.502;2023-11-18T04:42:39;2.58;;;0.90;;
23866;SDS011;12114;53.404;-1.502;2023-11-18T04:45:23;1.30;;;0.70;;
23866;SDS011;12114;53.404;-1.502;2023-11-18T04:48:07;0.90;;;0.80;;
23866;SDS011;12114;53.404;-1.502;2023-11-18T04:50:51;1.10;;;0.68;;
23866;SDS011;12114;53.404;-1.502;2023-11-18T04:53:35;1.88;;;0.80;;
23866;SDS011;12114;53.404;-1.502;2023-11-18T04:56:19;1.23;;;0.90;;
23866;SDS011;12114;53.404;-1.502;2023-11-18T04:59:05;1.27;;;1.00;;
23866;SDS011;12114;53.404;-1.502;2023-11-18T05:01:49;3.35;;;1.38;;
23866;SDS011;12114;53.404;-1.502;2023-11-18T05:04:33;1.27;;;0.82;;
23866;SDS011;12114;53.404;-1.502;2023-11-18T05:07:17;1.52;;;1.10;;
23866;SDS011;12114;53.404;-1.502;2023-11-18T05:10:01;1.80;;;1.17;;
23866;SDS011;12114;53.404;-1.502;2023-11-18T05:12:46;2.58;;;1.10;;
23866;SDS011;12114;53.404;-1.502;2023-11-18T05:15:39;1.55;;;1.00;;
23866;SDS011;12114;53.404;-1.502;2023-11-18T05:18:23;1.45;;;1.17;;
23866;SDS011;12114;53.404;-1.502;2023-11-18T05:21:07;1.73;;;1.20;;
23866;SDS011;12114;53.404;-1.502;2023-11-18T05:23:51;1.77;;;1.20;;
23866;SDS011;12114;53.404;-1.502;2023-11-18T05:26:35;1.65;;;1.38;;
23866;SDS011;12114;53.404;-1.502;2023-11-18T05:29:19;1.73;;;1.20;;
23866;SDS011;12114;53.404;-1.502;2023-11-18T05:32:04;1.73;;;1.50;;
23866;SDS011;12114;53.404;-1.502;2023-11-18T05:34:50;1.92;;;1.65;;
23866;SDS011;12114;53.404;-1.502;2023-11-18T05:37:38;2.20;;;1.70;;
23866;SDS011;12114;53.404;-1.502;2023-11-18T05:43:09;1.70;;;1.48;;
23866;SDS011;12114;53.404;-1.502;2023-11-18T05:45:59;1.65;;;1.55;;
23866;SDS011;12114;53.404;-1.502;2023-11-18T05:49:02;1.75;;;1.38;;
23866;SDS011;12114;53.404;-1.502;2023-11-18T05:51:51;2.88;;;1.58;;
23866;SDS011;12114;53.404;-1.502;2023-11-18T05:54:35;1.58;;;1.48;;
23866;SDS011;12114;53.404;-1.502;2023-11-18T05:57:19;2.10;;;1.35;;
23866;SDS011;12114;53.404;-1.502;2023-11-18T06:00:03;1.90;;;1.45;;
23866;SDS011;12114;53.404;-1.502;2023-11-18T06:02:49;2.15;;;1.95;;
23866;SDS011;12114;53.404;-1.502;2023-11-18T06:05:34;2.80;;;2.15;;
23866;SDS011;12114;53.404;-1.502;2023-11-18T06:08:18;4.10;;;2.10;;
23866;SDS011;12114;53.404;-1.502;2023-11-18T06:11:02;2.30;;;2.10;;
23866;SDS011;12114;53.404;-1.502;2023-11-18T06:13:56;3.63;;;1.95;;
23866;SDS011;12114;53.404;-1.502;2023-11-18T06:16:41;2.30;;;1.98;;
23866;SDS011;12114;53.404;-1.502;2023-11-18T06:19:25;2.90;;;2.50;;
23866;SDS011;12114;53.404;-1.502;2023-11-18T06:22:09;2.40;;;2.15;;
23866;SDS011;12114;53.404;-1.502;2023-11-18T06:24:54;2.95;;;2.30;;
23866;SDS011;12114;53.404;-1.502;2023-11-18T06:27:38;2.70;;;2.30;;
23866;SDS011;12114;53.404;-1.502;2023-11-18T06:30:22;3.33;;;2.50;;
23866;SDS011;12114;53.404;-1.502;2023-11-18T06:33:06;2.80;;;2.17;;
23866;SDS011;12114;53.404;-1.502;2023-11-18T06:35:50;3.05;;;2.75;;
23866;SDS011;12114;53.404;-1.502;2023-11-18T06:38:34;2.65;;;2.30;;
23866;SDS011;12114;53.404;-1.502;2023-11-18T06:41:19;3.30;;;2.67;;
23866;SDS011;12114;53.404;-1.502;2023-11-18T06:44:06;3.50;;;2.67;;
23866;SDS011;12114;53.404;-1.502;2023-11-18T06:46:57;3.15;;;2.63;;
23866;SDS011;12114;53.404;-1.502;2023-11-18T06:49:41;3.35;;;2.70;;
23866;SDS011;12114;53.404;-1.502;2023-11-18T06:52:25;3.30;;;2.80;;
23866;SDS011;12114;53.404;-1.502;2023-11-18T06:55:12;4.20;;;2.80;;
23866;SDS011;12114;53.404;-1.502;2023-11-18T06:57:57;3.35;;;2.65;;
23866;SDS011;12114;53.404;-1.502;2023-11-18T07:00:41;3.65;;;2.75;;
23866;SDS011;12114;53.404;-1.502;2023-11-18T07:03:25;3.28;;;2.58;;
23866;SDS011;12114;53.404;-1.502;2023-11-18T07:06:09;5.82;;;4.13;;
23866;SDS011;12114;53.404;-1.502;2023-11-18T07:08:54;4.25;;;3.83;;
23866;SDS011;12114;53.404;-1.502;2023-11-18T07:11:44;3.72;;;2.90;;
23866;SDS011;12114;53.404;-1.502;2023-11-18T07:14:28;4.38;;;3.30;;
23866;SDS011;12114;53.404;-1.502;2023-11-18T07:17:12;3.30;;;2.83;;
23866;SDS011;12114;53.404;-1.502;2023-11-18T07:19:56;3.22;;;2.78;;
23866;SDS011;12114;53.404;-1.502;2023-11-18T07:22:44;4.63;;;3.22;;
23866;SDS011;12114;53.404;-1.502;2023-11-18T07:25:28;3.75;;;3.15;;
23866;SDS011;12114;53.404;-1.502;2023-11-18T07:28:12;4.55;;;3.20;;
23866;SDS011;12114;53.404;-1.502;2023-11-18T07:31:00;4.15;;;3.10;;
23866;SDS011;12114;53.404;-1.502;2023-11-18T07:33:48;4.70;;;3.13;;
23866;SDS011;12114;53.404;-1.502;2023-11-18T07:36:33;5.25;;;3.50;;
23866;SDS011;12114;53.404;-1.502;2023-11-18T07:39:18;4.57;;;3.80;;
23866;SDS011;12114;53.404;-1.502;2023-11-18T07:42:08;4.35;;;3.42;;
23866;SDS011;12114;53.404;-1.502;2023-11-18T07:44:52;4.75;;;4.07;;
23866;SDS011;12114;53.404;-1.502;2023-11-18T07:47:36;4.30;;;3.70;;
23866;SDS011;12114;53.404;-1.502;2023-11-18T07:50:20;5.50;;;3.90;;
23866;SDS011;12114;53.404;-1.502;2023-11-18T07:53:05;5.38;;;4.05;;
23866;SDS011;12114;53.404;-1.502;2023-11-18T07:55:50;5.30;;;4.80;;
23866;SDS011;12114;53.404;-1.502;2023-11-18T07:58:34;7.13;;;5.50;;
23866;SDS011;12114;53.404;-1.502;2023-11-18T08:01:20;6.85;;;5.75;;
23866;SDS011;12114;53.404;-1.502;2023-11-18T08:04:07;7.80;;;4.65;;
23866;SDS011;12114;53.404;-1.502;2023-11-18T08:06:52;6.88;;;5.57;;
23866;SDS011;12114;53.404;-1.502;2023-11-18T08:09:37;8.73;;;5.00;;
23866;SDS011;12114;53.404;-1.502;2023-11-18T08:12:22;8.02;;;5.25;;
23866;SDS011;12114;53.404;-1.502;2023-11-18T08:15:06;7.53;;;5.75;;
23866;SDS011;12114;53.404;-1.502;2023-11-18T08:17:53;7.22;;;5.28;;
23866;SDS011;12114;53.404;-1.502;2023-11-18T08:20:37;8.18;;;6.07;;
23866;SDS011;12114;53.404;-1.502;2023-11-18T08:23:21;9.23;;;6.15;;
23866;SDS011;12114;53.404;-1.502;2023-11-18T08:26:05;8.00;;;5.53;;
23866;SDS011;12114;53.404;-1.502;2023-11-18T08:28:49;7.47;;;5.18;;
23866;SDS011;12114;53.404;-1.502;2023-11-18T08:31:33;6.05;;;4.80;;
23866;SDS011;12114;53.404;-1.502;2023-11-18T08:34:17;6.38;;;4.70;;
23866;SDS011;12114;53.404;-1.502;2023-11-18T08:37:05;7.00;;;5.40;;
23866;SDS011;12114;53.404;-1.502;2023-11-18T08:39:50;7.45;;;5.13;;
23866;SDS011;12114;53.404;-1.502;2023-11-18T08:42:34;6.93;;;5.13;;
23866;SDS011;12114;53.404;-1.502;2023-11-18T08:45:22;7.78;;;5.10;;
23866;SDS011;12114;53.404;-1.502;2023-11-18T08:48:13;7.75;;;5.45;;
23866;SDS011;12114;53.404;-1.502;2023-11-18T08:50:57;6.07;;;4.55;;
23866;SDS011;12114;53.404;-1.502;2023-11-18T08:53:41;6.40;;;5.03;;
23866;SDS011;12114;53.404;-1.502;2023-11-18T08:56:25;8.05;;;5.30;;
23866;SDS011;12114;53.404;-1.502;2023-11-18T08:59:18;8.85;;;6.28;;
23866;SDS011;12114;53.404;-1.502;2023-11-18T09:02:08;9.73;;;6.65;;
23866;SDS011;12114;53.404;-1.502;2023-11-18T09:04:57;8.35;;;5.95;;
23866;SDS011;12114;53.404;-1.502;2023-11-18T09:07:42;10.75;;;5.93;;
23866;SDS011;12114;53.404;-1.502;2023-11-18T09:10:27;11.02;;;6.93;;
23866;SDS011;12114;53.404;-1.502;2023-11-18T09:13:15;12.32;;;7.15;;
23866;SDS011;12114;53.404;-1.502;2023-11-18T09:15:59;12.43;;;7.65;;
23866;SDS011;12114;53.404;-1.502;2023-11-18T09:18:44;10.60;;;6.38;;
23866;SDS011;12114;53.404;-1.502;2023-11-18T09:21:28;10.70;;;8.13;;
23866;SDS011;12114;53.404;-1.502;2023-11-18T09:24:13;11.60;;;8.20;;
23866;SDS011;12114;53.404;-1.502;2023-11-18T09:26:57;9.02;;;6.10;;
23866;SDS011;12114;53.404;-1.502;2023-11-18T09:29:41;9.68;;;7.30;;
23866;SDS011;12114;53.404;-1.502;2023-11-18T09:32:28;10.20;;;7.22;;
23866;SDS011;12114;53.404;-1.502;2023-11-18T09:35:12;11.43;;;7.47;;
23866;SDS011;12114;53.404;-1.502;2023-11-18T09:37:56;12.05;;;8.32;;
23866;SDS011;12114;53.404;-1.502;2023-11-18T09:40:43;13.00;;;9.63;;
23866;SDS011;12114;53.404;-1.502;2023-11-18T09:43:33;13.95;;;9.18;;
23866;SDS011;12114;53.404;-1.502;2023-11-18T09:46:27;15.25;;;9.85;;
23866;SDS011;12114;53.404;-1.502;2023-11-18T09:49:22;13.90;;;9.80;;
23866;SDS011;12114;53.404;-1.502;2023-11-18T09:52:17;19.13;;;11.13;;
23866;SDS011;12114;53.404;-1.502;2023-11-18T09:55:03;15.85;;;10.75;;
23866;SDS011;12114;53.404;-1.502;2023-11-18T09:58:04;14.32;;;9.88;;
23866;SDS011;12114;53.404;-1.502;2023-11-18T10:01:00;15.02;;;10.63;;
23866;SDS011;12114;53.404;-1.502;2023-11-18T10:03:46;13.93;;;9.27;;
23866;SDS011;12114;53.404;-1.502;2023-11-18T10:09:18;15.15;;;10.40;;
23866;SDS011;12114;53.404;-1.502;2023-11-18T10:12:11;17.40;;;11.77;;
23866;SDS011;12114;53.404;-1.502;2023-11-18T10:15:00;22.27;;;14.88;;
23866;SDS011;12114;53.404;-1.502;2023-11-18T10:17:47;22.50;;;16.05;;
23866;SDS011;12114;53.404;-1.502;2023-11-18T10:20:44;20.25;;;12.88;;
23866;SDS011;12114;53.404;-1.502;2023-11-18T10:23:29;18.35;;;12.20;;
23866;SDS011;12114;53.404;-1.502;2023-11-18T10:26:17;18.75;;;12.40;;
23866;SDS011;12114;53.404;-1.502;2023-11-18T10:29:02;18.33;;;11.13;;
23866;SDS011;12114;53.404;-1.502;2023-11-18T10:32:01;17.92;;;11.02;;
23866;SDS011;12114;53.404;-1.502;2023-11-18T10:34:56;15.23;;;10.82;;
23866;SDS011;12114;53.404;-1.502;2023-11-18T10:37:41;17.40;;;11.48;;
23866;SDS011;12114;53.404;-1.502;2023-11-18T10:40:27;17.58;;;12.85;;
23866;SDS011;12114;53.404;-1.502;2023-11-18T10:43:11;21.67;;;13.50;;
23866;SDS011;12114;53.404;-1.502;2023-11-18T10:48:57;29.55;;;25.42;;
23866;SDS011;12114;53.404;-1.502;2023-11-18T10:51:42;31.15;;;24.65;;
23866;SDS011;12114;53.404;-1.502;2023-11-18T10:54:31;16.70;;;11.65;;
23866;SDS011;12114;53.404;-1.502;2023-11-18T10:57:15;15.05;;;11.05;;
23866;SDS011;12114;53.404;-1.502;2023-11-18T11:00:00;13.82;;;9.82;;
23866;SDS011;12114;53.404;-1.502;2023-11-18T11:02:45;17.23;;;11.00;;
23866;SDS011;12114;53.404;-1.502;2023-11-18T11:05:31;16.20;;;11.25;;
23866;SDS011;12114;53.404;-1.502;2023-11-18T11:08:16;17.83;;;11.63;;
23866;SDS011;12114;53.404;-1.502;2023-11-18T11:11:00;23.17;;;13.52;;
23866;SDS011;12114;53.404;-1.502;2023-11-18T11:13:47;22.80;;;15.57;;
23866;SDS011;12114;53.404;-1.502;2023-11-18T11:16:45;18.40;;;12.65;;
23866;SDS011;12114;53.404;-1.502;2023-11-18T11:19:39;17.90;;;12.52;;
23866;SDS011;12114;53.404;-1.502;2023-11-18T11:22:36;21.33;;;12.18;;
23866;SDS011;12114;53.404;-1.502;2023-11-18T11:25:29;9.73;;;6.75;;
23866;SDS011;12114;53.404;-1.502;2023-11-18T11:28:21;7.13;;;5.75;;
23866;SDS011;12114;53.404;-1.502;2023-11-18T11:31:16;3.57;;;1.70;;
23866;SDS011;12114;53.404;-1.502;2023-11-18T11:34:06;4.15;;;1.80;;
23866;SDS011;12114;53.404;-1.502;2023-11-18T11:37:00;6.90;;;5.60;;
23866;SDS011;12114;53.404;-1.502;2023-11-18T11:39:45;13.00;;;7.70;;
23866;SDS011;12114;53.404;-1.502;2023-11-18T11:42:31;5.22;;;1.27;;
23866;SDS011;12114;53.404;-1.502;2023-11-18T11:45:15;7.50;;;3.33;;
23866;SDS011;12114;53.404;-1.502;2023-11-18T11:48:06;7.47;;;4.00;;
23866;SDS011;12114;53.404;-1.502;2023-11-18T11:54:06;5.00;;;0.93;;
23866;SDS011;12114;53.404;-1.502;2023-11-18T11:57:04;6.10;;;1.77;;
23866;SDS011;12114;53.404;-1.502;2023-11-18T12:02:36;6.15;;;1.52;;
23866;SDS011;12114;53.404;-1.502;2023-11-18T12:05:24;3.75;;;0.80;;
23866;SDS011;12114;53.404;-1.502;2023-11-18T12:10:56;6.90;;;1.50;;
23866;SDS011;12114;53.404;-1.502;2023-11-18T12:13:49;6.15;;;1.00;;
23866;SDS011;12114;53.404;-1.502;2023-11-18T12:17:06;5.88;;;1.13;;
23866;SDS011;12114;53.404;-1.502;2023-11-18T12:20:05;5.85;;;0.82;;
23866;SDS011;12114;53.404;-1.502;2023-11-18T12:23:31;6.97;;;2.63;;
23866;SDS011;12114;53.404;-1.502;2023-11-18T12:29:31;7.93;;;0.98;;
23866;SDS011;12114;53.404;-1.502;2023-11-18T12:35:22;6.00;;;1.20;;
23866;SDS011;12114;53.404;-1.502;2023-11-18T12:47:06;4.20;;;0.82;;
23866;SDS011;12114;53.404;-1.502;2023-11-18T12:49:58;4.65;;;0.80;;
23866;SDS011;12114;53.404;-1.502;2023-11-18T12:52:44;4.97;;;1.25;;
23866;SDS011;12114;53.404;-1.502;2023-11-18T12:55:28;5.85;;;1.15;;
23866;SDS011;12114;53.404;-1.502;2023-11-18T12:58:15;6.85;;;1.20;;
23866;SDS011;12114;53.404;-1.502;2023-11-18T13:00:59;6.65;;;1.60;;
23866;SDS011;12114;53.404;-1.502;2023-11-18T13:03:43;5.57;;;1.20;;
23866;SDS011;12114;53.404;-1.502;2023-11-18T13:06:27;6.93;;;1.17;;
23866;SDS011;12114;53.404;-1.502;2023-11-18T13:09:15;3.05;;;1.15;;
23866;SDS011;12114;53.404;-1.502;2023-11-18T13:12:08;7.78;;;1.40;;
23866;SDS011;12114;53.404;-1.502;2023-11-18T13:14:52;7.30;;;1.70;;
23866;SDS011;12114;53.404;-1.502;2023-11-18T13:17:37;5.90;;;1.33;;
23866;SDS011;12114;53.404;-1.502;2023-11-18T13:20:21;7.05;;;1.13;;
23866;SDS011;12114;53.404;-1.502;2023-11-18T13:23:08;5.25;;;0.93;;
23866;SDS011;12114;53.404;-1.502;2023-11-18T13:25:56;5.07;;;1.00;;
23866;SDS011;12114;53.404;-1.502;2023-11-18T13:28:44;5.68;;;0.95;;
23866;SDS011;12114;53.404;-1.502;2023-11-18T13:31:28;6.53;;;1.30;;
23866;SDS011;12114;53.404;-1.502;2023-11-18T13:34:12;5.18;;;1.10;;
23866;SDS011;12114;53.404;-1.502;2023-11-18T13:37:00;8.75;;;1.00;;
23866;SDS011;12114;53.404;-1.502;2023-11-18T13:39:44;6.85;;;1.63;;
23866;SDS011;12114;53.404;-1.502;2023-11-18T13:42:33;6.65;;;1.65;;
23866;SDS011;12114;53.404;-1.502;2023-11-18T13:45:19;10.35;;;1.85;;
23866;SDS011;12114;53.404;-1.502;2023-11-18T13:48:05;9.05;;;2.00;;
23866;SDS011;12114;53.404;-1.502;2023-11-18T13:50:52;12.77;;;2.35;;
23866;SDS011;12114;53.404;-1.502;2023-11-18T13:53:37;10.00;;;2.30;;
23866;SDS011;12114;53.404;-1.502;2023-11-18T13:56:21;12.65;;;2.10;;
23866;SDS011;12114;53.404;-1.502;2023-11-18T13:59:05;14.27;;;2.42;;
23866;SDS011;12114;53.404;-1.502;2023-11-18T14:01:51;14.57;;;4.63;;
23866;SDS011;12114;53.404;-1.502;2023-11-18T14:04:38;8.30;;;2.38;;
23866;SDS011;12114;53.404;-1.502;2023-11-18T14:07:23;10.20;;;2.30;;
23866;SDS011;12114;53.404;-1.502;2023-11-18T14:10:08;15.25;;;2.88;;
23866;SDS011;12114;53.404;-1.502;2023-11-18T14:15:45;11.57;;;2.30;;
23866;SDS011;12114;53.404;-1.502;2023-11-18T14:21:14;11.68;;;2.20;;
23866;SDS011;12114;53.404;-1.502;2023-11-18T14:23:59;13.57;;;2.53;;
23866;SDS011;12114;53.404;-1.502;2023-11-18T14:26:46;9.98;;;1.95;;
23866;SDS011;12114;53.404;-1.502;2023-11-18T14:29:30;10.35;;;2.20;;
23866;SDS011;12114;53.404;-1.502;2023-11-18T14:32:15;14.45;;;2.83;;
23866;SDS011;12114;53.404;-1.502;2023-11-18T14:34:59;13.32;;;2.00;;
23866;SDS011;12114;53.404;-1.502;2023-11-18T14:37:44;12.18;;;2.63;;
23866;SDS011;12114;53.404;-1.502;2023-11-18T14:40:28;11.13;;;2.13;;
23866;SDS011;12114;53.404;-1.502;2023-11-18T14:43:13;12.13;;;2.30;;
23866;SDS011;12114;53.404;-1.502;2023-11-18T14:45:58;14.57;;;2.80;;
23866;SDS011;12114;53.404;-1.502;2023-11-18T14:48:42;14.63;;;3.55;;
23866;SDS011;12114;53.404;-1.502;2023-11-18T14:51:26;14.73;;;2.70;;
23866;SDS011;12114;53.404;-1.502;2023-11-18T14:54:10;11.85;;;2.13;;
23866;SDS011;12114;53.404;-1.502;2023-11-18T14:56:54;12.45;;;2.55;;
23866;SDS011;12114;53.404;-1.502;2023-11-18T14:59:38;9.43;;;2.47;;
23866;SDS011;12114;53.404;-1.502;2023-11-18T15:02:22;14.50;;;2.90;;
23866;SDS011;12114;53.404;-1.502;2023-11-18T15:05:09;16.27;;;2.90;;
23866;SDS011;12114;53.404;-1.502;2023-11-18T15:07:54;10.75;;;2.08;;
23866;SDS011;12114;53.404;-1.502;2023-11-18T15:10:44;10.85;;;2.40;;
23866;SDS011;12114;53.404;-1.502;2023-11-18T15:13:28;18.52;;;3.90;;
23866;SDS011;12114;53.404;-1.502;2023-11-18T15:16:11;12.48;;;2.35;;
23866;SDS011;12114;53.404;-1.502;2023-11-18T15:18:55;13.80;;;2.13;;
23866;SDS011;12114;53.404;-1.502;2023-11-18T15:21:40;13.55;;;2.88;;
23866;SDS011;12114;53.404;-1.502;2023-11-18T15:24:24;15.27;;;2.90;;
23866;SDS011;12114;53.404;-1.502;2023-11-18T15:27:08;11.38;;;2.50;;
23866;SDS011;12114;53.404;-1.502;2023-11-18T15:29:57;15.13;;;3.38;;
23866;SDS011;12114;53.404;-1.502;2023-11-18T15:32:45;17.45;;;3.25;;
23866;SDS011;12114;53.404;-1.502;2023-11-18T15:35:29;14.02;;;3.03;;
23866;SDS011;12114;53.404;-1.502;2023-11-18T15:38:14;19.52;;;3.75;;
23866;SDS011;12114;53.404;-1.502;2023-11-18T15:41:01;19.20;;;3.28;;
23866;SDS011;12114;53.404;-1.502;2023-11-18T15:43:45;17.65;;;3.38;;
23866;SDS011;12114;53.404;-1.502;2023-11-18T15:46:29;23.17;;;4.25;;
23866;SDS011;12114;53.404;-1.502;2023-11-18T15:49:13;21.52;;;4.05;;
23866;SDS011;12114;53.404;-1.502;2023-11-18T15:51:57;17.42;;;4.00;;
23866;SDS011;12114;53.404;-1.502;2023-11-18T15:54:41;19.67;;;4.13;;
23866;SDS011;12114;53.404;-1.502;2023-11-18T15:57:27;18.35;;;3.78;;
23866;SDS011;12114;53.404;-1.502;2023-11-18T16:00:11;17.75;;;3.22;;
23866;SDS011;12114;53.404;-1.502;2023-11-18T16:02:59;23.45;;;3.83;;
23866;SDS011;12114;53.404;-1.502;2023-11-18T16:05:44;19.45;;;3.85;;
23866;SDS011;12114;53.404;-1.502;2023-11-18T16:08:27;19.25;;;3.42;;
23866;SDS011;12114;53.404;-1.502;2023-11-18T16:11:11;25.98;;;4.75;;
23866;SDS011;12114;53.404;-1.502;2023-11-18T16:13:55;25.38;;;3.55;;
23866;SDS011;12114;53.404;-1.502;2023-11-18T16:16:43;25.23;;;4.15;;
23866;SDS011;12114;53.404;-1.502;2023-11-18T16:19:27;21.35;;;4.75;;
23866;SDS011;12114;53.404;-1.502;2023-11-18T16:22:14;20.70;;;4.53;;
23866;SDS011;12114;53.404;-1.502;2023-11-18T16:24:58;23.58;;;5.00;;
23866;SDS011;12114;53.404;-1.502;2023-11-18T16:27:42;21.65;;;3.92;;
23866;SDS011;12114;53.404;-1.502;2023-11-18T16:30:26;26.38;;;4.47;;
23866;SDS011;12114;53.404;-1.502;2023-11-18T16:33:14;24.35;;;5.03;;
23866;SDS011;12114;53.404;-1.502;2023-11-18T16:35:59;26.60;;;4.72;;
23866;SDS011;12114;53.404;-1.502;2023-11-18T16:38:43;29.13;;;5.30;;
23866;SDS011;12114;53.404;-1.502;2023-11-18T16:41:30;31.30;;;5.22;;
23866;SDS011;12114;53.404;-1.502;2023-11-18T16:44:14;22.08;;;4.78;;
23866;SDS011;12114;53.404;-1.502;2023-11-18T16:46:58;28.85;;;6.28;;
23866;SDS011;12114;53.404;-1.502;2023-11-18T16:49:45;32.33;;;6.13;;
23866;SDS011;12114;53.404;-1.502;2023-11-18T16:52:30;29.00;;;5.87;;
23866;SDS011;12114;53.404;-1.502;2023-11-18T16:55:15;27.05;;;5.30;;
23866;SDS011;12114;53.404;-1.502;2023-11-18T16:57:59;33.85;;;6.50;;